Time;durP1;ratioP1;P1;durP2;ratioP2;P2;SDS_P1;SDS_P2;PMS_P1;PMS_P2;Temp;Humidity;BMP_temperature;BMP_pressure;BME280_temperature;BME280_humidity;BME280_pressure;Samples;Min_cycle;Max_cycle;Signal;HPM_P1;HPM_P2
2022/06/25 00:01:05;;;;;;;3.70;3.45;;;;;;;19.43;77.87;100783.25;4883786;29;20289;-85
2022/06/25 00:03:31;;;;;;;4.25;3.40;;;;;;;19.43;77.77;100785.03;4884160;29;20416;-85
2022/06/25 00:05:56;;;;;;;5.07;3.17;;;;;;;19.41;77.58;100777.22;4876967;29;20020;-85
2022/06/25 00:08:22;;;;;;;3.00;2.80;;;;;;;19.41;77.58;100774.56;4883471;29;20033;-85
2022/06/25 00:10:47;;;;;;;4.25;3.08;;;;;;;19.39;77.55;100784.41;4883572;29;20045;-85
2022/06/25 00:13:12;;;;;;;2.88;2.65;;;;;;;19.39;77.43;100789.72;4867466;29;20093;-85
2022/06/25 00:15:38;;;;;;;3.00;2.65;;;;;;;19.38;77.29;100791.56;4894055;29;20087;-85
2022/06/25 00:18:03;;;;;;;4.18;2.85;;;;;;;19.38;77.30;100793.38;4878713;29;20052;-85
2022/06/25 00:20:29;;;;;;;2.97;2.78;;;;;;;19.37;77.31;100795.19;4884061;29;20084;-85
2022/06/25 00:22:54;;;;;;;2.58;2.40;;;;;;;19.37;77.31;100803.16;4867692;29;20293;-85
2022/06/25 00:25:19;;;;;;;3.72;2.88;;;;;;;19.36;77.36;100792.66;4883184;29;20040;-85
2022/06/25 00:27:45;;;;;;;3.47;2.95;;;;;;;19.34;77.45;100795.41;4883350;29;20033;-85
2022/06/25 00:30:11;;;;;;;3.28;2.78;;;;;;;19.34;77.29;100794.59;4882809;29;20048;-85
2022/06/25 00:32:36;;;;;;;3.30;3.00;;;;;;;19.32;77.47;100786.72;4890890;29;20045;-85
2022/06/25 00:35:03;;;;;;;3.33;3.13;;;;;;;19.31;77.42;100793.00;4882519;29;20104;-85
2022/06/25 00:37:28;;;;;;;6.93;3.22;;;;;;;19.31;77.34;100798.31;4885675;29;20037;-85
2022/06/25 00:39:54;;;;;;;3.30;3.05;;;;;;;19.29;77.48;100786.97;4897746;29;20351;-85
2022/06/25 00:42:19;;;;;;;4.70;3.25;;;;;;;19.29;77.56;100786.97;4883815;29;20044;-85
2022/06/25 00:44:45;;;;;;;5.15;3.53;;;;;;;19.29;77.54;100786.13;4891232;29;20093;-85
2022/06/25 00:47:12;;;;;;;3.50;3.20;;;;;;;19.28;77.68;100793.25;4893723;29;20040;-85
2022/06/25 00:49:39;;;;;;;3.33;3.03;;;;;;;19.27;77.70;100785.41;4884903;29;20100;-85
2022/06/25 00:52:11;;;;;;;3.67;2.90;;;;;;;19.26;77.77;100795.16;4865864;29;20043;-85
2022/06/25 00:54:38;;;;;;;4.55;3.67;;;;;;;19.25;77.33;100792.66;4886017;29;20041;-85
2022/06/25 00:57:06;;;;;;;3.30;3.00;;;;;;;19.25;77.19;100798.81;4890425;29;20431;-85
2022/06/25 00:59:39;;;;;;;4.47;3.20;;;;;;;19.23;77.24;100802.53;4890868;29;20069;-85
2022/06/25 01:02:04;;;;;;;3.35;3.15;;;;;;;19.22;77.66;100801.69;4886581;29;20028;-85
2022/06/25 01:04:30;;;;;;;3.75;3.30;;;;;;;19.22;77.61;100804.34;4887151;29;20049;-85
2022/06/25 01:06:55;;;;;;;4.03;3.63;;;;;;;19.21;77.70;100804.44;4882504;29;20033;-85
2022/06/25 01:09:21;;;;;;;5.45;3.80;;;;;;;19.20;78.04;100808.94;4893490;29;20045;-85
2022/06/25 01:11:47;;;;;;;3.80;3.50;;;;;;;19.20;78.12;100810.75;4867596;29;20139;-85
2022/06/25 01:14:13;;;;;;;7.90;3.40;;;;;;;19.18;78.10;100805.56;4889713;29;20063;-85
2022/06/25 01:16:38;;;;;;;6.63;3.92;;;;;;;19.17;78.18;100817.13;4881246;29;20376;-85
2022/06/25 01:19:09;;;;;;;5.25;3.60;;;;;;;19.15;78.36;100813.75;4891500;29;20123;-85
2022/06/25 01:21:35;;;;;;;4.80;3.88;;;;;;;19.14;78.15;100822.69;4883279;29;20033;-85
2022/06/25 01:24:02;;;;;;;4.22;3.70;;;;;;;19.13;78.50;100823.63;4882391;29;20102;-85
2022/06/25 01:26:28;;;;;;;6.03;3.80;;;;;;;19.12;78.25;100829.94;4882291;29;20037;-85
2022/06/25 01:28:53;;;;;;;4.18;3.25;;;;;;;19.12;78.38;100832.56;4889219;29;20060;-85
2022/06/25 01:31:19;;;;;;;3.60;3.30;;;;;;;19.10;78.39;100842.44;4901434;29;20299;-85
2022/06/25 01:33:44;;;;;;;7.10;3.47;;;;;;;19.10;78.21;100839.78;4888059;29;20033;-85
2022/06/25 01:36:09;;;;;;;4.68;3.35;;;;;;;19.09;78.26;100832.81;4899533;29;20043;-85
2022/06/25 01:38:35;;;;;;;4.75;3.88;;;;;;;19.08;78.78;100841.72;4899023;29;20349;-85
2022/06/25 01:41:00;;;;;;;5.22;3.78;;;;;;;19.07;78.46;100843.53;4879582;29;20033;-85
2022/06/25 01:43:26;;;;;;;5.45;3.90;;;;;;;19.06;78.68;100841.81;4883156;29;20040;-85
2022/06/25 01:45:51;;;;;;;4.30;3.80;;;;;;;19.04;78.59;100843.75;4888141;29;20045;-85
2022/06/25 01:48:17;;;;;;;4.88;3.88;;;;;;;19.03;78.66;100847.41;4881165;29;20041;-85
2022/06/25 01:50:42;;;;;;;6.32;3.78;;;;;;;19.02;78.25;100840.38;4883245;29;20111;-85
2022/06/25 01:53:08;;;;;;;4.68;4.18;;;;;;;19.01;78.46;100844.00;4881704;29;20221;-85
2022/06/25 01:55:33;;;;;;;5.07;4.07;;;;;;;19.02;78.73;100842.19;4866152;29;20125;-85
2022/06/25 01:57:58;;;;;;;5.45;4.00;;;;;;;19.01;78.63;100854.63;4880653;29;20221;-85
2022/06/25 02:00:27;;;;;;;5.82;4.00;;;;;;;19.01;78.66;100853.75;4882400;29;20056;-85
2022/06/25 02:02:53;;;;;;;6.93;4.45;;;;;;;18.99;78.58;100861.84;4881981;29;20491;-85
2022/06/25 02:08:09;;;;;;;5.68;3.88;;;;;;;18.97;78.78;100864.63;4882005;29;20032;-85
2022/06/25 02:10:35;;;;;;;6.72;3.88;;;;;;;18.96;78.98;100865.56;4881910;29;20045;-85
2022/06/25 02:13:00;;;;;;;4.65;3.20;;;;;;;18.95;79.14;100869.19;4881675;29;20269;-85
2022/06/25 02:15:26;;;;;;;5.75;3.55;;;;;;;18.93;79.10;100860.50;4894800;29;20053;-85
2022/06/25 02:17:51;;;;;;;5.43;3.78;;;;;;;18.93;79.05;100864.97;4893648;29;20132;-85
2022/06/25 02:20:17;;;;;;;3.25;2.95;;;;;;;18.93;78.96;100864.97;4888893;29;20036;-85
2022/06/25 02:22:43;;;;;;;5.53;2.78;;;;;;;18.92;78.95;100872.09;4891927;29;20085;-85
2022/06/25 02:25:08;;;;;;;6.47;3.13;;;;;;;18.90;79.27;100871.34;4890038;29;20097;-85
2022/06/25 02:27:34;;;;;;;4.55;2.85;;;;;;;18.90;79.34;100871.34;4900335;29;20040;-85
2022/06/25 02:30:00;;;;;;;4.05;2.90;;;;;;;18.90;79.10;100881.09;4892329;29;20037;-85
2022/06/25 02:32:25;;;;;;;6.35;3.33;;;;;;;18.89;79.18;100874.13;4881983;29;20067;-85
2022/06/25 02:34:50;;;;;;;5.13;3.05;;;;;;;18.88;78.72;100878.59;4885114;29;20366;-85
2022/06/25 02:37:16;;;;;;;2.60;2.40;;;;;;;18.88;79.07;100880.38;4861618;29;20048;-84
2022/06/25 02:39:41;;;;;;;2.65;2.42;;;;;;;18.86;78.84;100883.13;4888570;29;20093;-84
2022/06/25 02:42:07;;;;;;;3.08;2.42;;;;;;;18.86;79.03;100882.31;4886893;29;20212;-84
2022/06/25 02:44:32;;;;;;;3.78;2.88;;;;;;;18.86;78.67;100891.09;4881319;29;20221;-84
2022/06/25 02:46:58;;;;;;;5.07;2.85;;;;;;;18.84;78.78;100887.72;4864124;29;20071;-84
2022/06/25 02:49:23;;;;;;;2.70;2.38;;;;;;;18.84;79.12;100889.53;4881334;29;20048;-84
2022/06/25 02:51:49;;;;;;;4.03;2.60;;;;;;;18.83;78.75;100896.66;4889914;29;20240;-84
2022/06/25 02:54:14;;;;;;;2.55;2.22;;;;;;;18.82;78.52;100899.41;4864380;29;20048;-84
2022/06/25 02:59:23;;;;;;;5.13;2.20;;;;;;;18.79;78.23;100900.44;4880735;29;20052;-84
2022/06/25 03:01:49;;;;;;;4.63;2.60;;;;;;;18.78;77.88;100907.56;4880510;29;20123;-84
2022/06/25 03:04:15;;;;;;;5.07;2.50;;;;;;;18.77;78.09;100897.94;4864420;29;20048;-84
2022/06/25 03:06:40;;;;;;;2.90;2.60;;;;;;;18.76;78.21;100898.88;4881082;29;20045;-84
2022/06/25 03:09:06;;;;;;;2.45;2.15;;;;;;;18.75;78.01;100902.47;4864314;29;20048;-84
2022/06/25 03:11:32;;;;;;;2.25;2.00;;;;;;;18.74;77.82;100905.28;4885401;29;20042;-84
2022/06/25 03:13:58;;;;;;;4.40;2.40;;;;;;;18.73;77.72;100903.56;4880829;29;20080;-84
2022/06/25 03:16:23;;;;;;;3.65;2.25;;;;;;;18.73;77.68;100907.06;4894577;29;20048;-84
2022/06/25 03:18:50;;;;;;;3.50;2.65;;;;;;;18.73;77.69;100908.88;4876482;29;20340;-84
2022/06/25 03:21:16;;;;;;;5.10;2.67;;;;;;;18.72;77.70;100918.66;4894105;29;20109;-84
2022/06/25 03:23:41;;;;;;;3.95;2.58;;;;;;;18.71;77.53;100916.09;4901186;29;20108;-84
2022/06/25 03:26:07;;;;;;;5.90;2.75;;;;;;;18.71;77.57;100910.78;4883242;29;20269;-84
2022/06/25 03:28:32;;;;;;;5.00;3.05;;;;;;;18.70;77.53;100912.59;4887751;29;20125;-84
2022/06/25 03:30:58;;;;;;;4.47;2.78;;;;;;;18.70;77.43;100922.34;4881945;29;20051;-84
2022/06/25 03:33:23;;;;;;;3.60;2.53;;;;;;;18.68;77.41;100911.88;4850383;29;20025;-84
2022/06/25 03:35:49;;;;;;;2.97;2.63;;;;;;;18.67;77.20;100926.09;4887926;29;20060;-84
2022/06/25 03:38:14;;;;;;;3.70;2.78;;;;;;;18.68;77.31;100932.22;4888793;29;20407;-84
2022/06/25 03:40:40;;;;;;;4.43;2.90;;;;;;;18.68;76.87;100937.53;4886114;29;20044;-84
2022/06/25 03:43:05;;;;;;;3.95;3.03;;;;;;;18.66;76.99;100934.16;4882145;29;20135;-84
2022/06/25 03:45:31;;;;;;;5.82;3.13;;;;;;;18.65;76.96;100940.44;4885860;29;20041;-84
2022/06/25 03:47:56;;;;;;;5.85;3.28;;;;;;;18.63;77.02;100939.66;4881512;29;20326;-84
2022/06/25 03:50:22;;;;;;;6.10;2.78;;;;;;;18.64;77.08;100938.72;4882923;29;20049;-84
2022/06/25 03:52:49;;;;;;;5.30;3.28;;;;;;;18.61;76.56;100945.97;4894125;29;20263;-84
2022/06/25 03:55:16;;;;;;;3.20;2.53;;;;;;;18.61;76.77;100939.81;4864884;29;20049;-84
2022/06/25 03:57:45;;;;;;;3.85;2.70;;;;;;;18.61;76.52;100947.78;4896921;29;20041;-84
2022/06/25 04:00:12;;;;;;;3.88;2.88;;;;;;;18.60;76.49;100951.38;4884605;29;20096;-84
2022/06/25 04:02:37;;;;;;;5.78;2.70;;;;;;;18.59;76.29;100953.19;4864606;29;20048;-84
2022/06/25 04:05:03;;;;;;;2.78;2.47;;;;;;;18.59;76.35;100953.19;4881455;29;20053;-84
2022/06/25 04:07:28;;;;;;;2.67;2.30;;;;;;;18.58;76.23;100948.81;4897428;29;20323;-84
2022/06/25 04:09:54;;;;;;;5.28;2.50;;;;;;;18.57;75.92;100957.75;4887858;29;20051;-84
2022/06/25 04:12:19;;;;;;;3.83;2.17;;;;;;;18.57;76.24;100951.56;4881725;29;20069;-84
2022/06/25 04:14:45;;;;;;;3.47;2.00;;;;;;;18.57;76.11;100960.41;4880104;29;20049;-84
2022/06/25 04:17:11;;;;;;;3.70;1.63;;;;;;;18.56;76.16;100950.75;4887176;29;20361;-84
2022/06/25 04:19:42;;;;;;;3.45;2.35;;;;;;;18.56;76.12;100956.03;4881400;29;20057;-84
2022/06/25 04:22:09;;;;;;;7.25;1.85;;;;;;;18.55;76.20;100964.09;4891414;29;20040;-84
2022/06/25 04:24:36;;;;;;;6.40;1.75;;;;;;;18.56;75.92;100957.84;4898418;29;20431;-84
2022/06/25 04:27:01;;;;;;;3.13;2.40;;;;;;;18.53;76.21;100958.91;4881050;29;20127;-84
2022/06/25 04:29:27;;;;;;;3.13;2.08;;;;;;;18.54;76.42;100959.78;4880432;29;20041;-84
2022/06/25 04:31:53;;;;;;;2.47;2.28;;;;;;;18.53;76.35;100953.59;4873014;29;20072;-84
2022/06/25 04:34:18;;;;;;;3.03;1.88;;;;;;;18.52;76.55;100964.31;4853947;29;20041;-84
2022/06/25 04:36:44;;;;;;;6.38;2.05;;;;;;;18.51;76.51;100966.13;4887489;29;20064;-84
2022/06/25 04:39:09;;;;;;;2.72;2.00;;;;;;;18.51;76.64;100965.28;4874184;29;20387;-84
2022/06/25 04:41:34;;;;;;;2.83;1.70;;;;;;;18.50;76.47;100968.88;4881585;29;20335;-84
2022/06/25 04:44:01;;;;;;;3.38;1.77;;;;;;;18.49;76.46;100970.69;4879146;29;20335;-84
2022/06/25 04:46:29;;;;;;;6.15;2.25;;;;;;;18.49;76.17;100978.66;4884301;29;20331;-84
2022/06/25 04:48:55;;;;;;;2.72;1.85;;;;;;;18.48;76.49;100979.63;4881849;29;20100;-84
2022/06/25 04:51:21;;;;;;;4.80;2.13;;;;;;;18.47;76.45;100985.88;4882911;29;20059;-84
2022/06/25 04:53:55;;;;;;;4.90;2.10;;;;;;;18.46;76.82;100986.81;4854747;29;20120;-84
2022/06/25 04:56:30;;;;;;;2.80;2.00;;;;;;;18.47;76.34;100993.84;4881919;29;20065;-85
2022/06/25 04:58:56;;;;;;;3.13;2.30;;;;;;;18.47;76.50;100988.53;4880494;29;20048;-84
2022/06/25 05:01:22;;;;;;;3.33;2.30;;;;;;;18.48;76.68;100997.31;4880220;29;20115;-84
2022/06/25 05:03:48;;;;;;;2.33;1.70;;;;;;;18.48;76.63;100997.31;4895021;29;20051;-84
2022/06/25 05:06:14;;;;;;;5.63;2.10;;;;;;;18.48;76.52;100998.19;4899422;29;20028;-84
2022/06/25 05:08:40;;;;;;;3.58;2.08;;;;;;;18.47;76.75;100991.19;4880752;29;20103;-84
2022/06/25 05:11:06;;;;;;;5.53;2.45;;;;;;;18.47;77.04;100993.84;4863834;29;20504;-84
2022/06/25 05:13:31;;;;;;;1.67;1.58;;;;;;;18.47;76.74;100993.84;4871639;29;20108;-84
2022/06/25 05:15:56;;;;;;;3.05;2.08;;;;;;;18.48;77.12;100999.97;4880086;29;20041;-84
2022/06/25 05:18:22;;;;;;;2.78;1.65;;;;;;;18.48;76.95;101003.50;4880275;29;20096;-84
2022/06/25 05:20:47;;;;;;;2.08;1.75;;;;;;;18.48;76.69;100998.19;4880935;29;20040;-84
2022/06/25 05:23:13;;;;;;;2.10;1.90;;;;;;;18.49;76.57;101005.19;4893559;29;20219;-84
2022/06/25 05:25:39;;;;;;;4.70;2.10;;;;;;;18.48;76.81;101008.81;4866241;29;20052;-84
2022/06/25 05:28:05;;;;;;;2.10;1.90;;;;;;;18.49;76.50;101002.53;4870376;29;20256;-84
2022/06/25 05:30:32;;;;;;;3.45;1.88;;;;;;;18.49;76.91;101012.28;4880912;29;20104;-84
2022/06/25 05:32:57;;;;;;;4.03;2.13;;;;;;;18.48;76.62;101014.09;4881152;29;20138;-84
2022/06/25 05:35:23;;;;;;;3.10;2.03;;;;;;;18.49;76.70;101014.94;4881641;29;20352;-85
2022/06/25 05:37:49;;;;;;;4.90;2.78;;;;;;;18.46;76.54;101016.00;4887710;29;20032;-85
2022/06/25 05:40:14;;;;;;;1.90;1.80;;;;;;;18.46;76.16;101020.47;4884591;29;20048;-84
2022/06/25 05:42:40;;;;;;;6.15;2.15;;;;;;;18.46;76.59;101016.00;4887508;29;20417;-84
2022/06/25 05:45:06;;;;;;;3.20;1.85;;;;;;;18.46;76.46;101015.16;4882680;29;20342;-84
2022/06/25 05:47:32;;;;;;;3.38;1.90;;;;;;;18.46;76.65;101026.59;4834851;29;20123;-84
2022/06/25 05:49:57;;;;;;;5.72;1.90;;;;;;;18.46;76.83;101026.59;4879756;29;20084;-84
2022/06/25 05:52:22;;;;;;;2.13;1.70;;;;;;;18.47;76.90;101028.31;4879941;29;20045;-84
2022/06/25 05:54:48;;;;;;;3.80;1.85;;;;;;;18.49;76.96;101028.22;4878520;29;20041;-84
2022/06/25 05:57:14;;;;;;;2.17;1.80;;;;;;;18.49;77.18;101025.56;4869597;29;20370;-84
2022/06/25 05:59:39;;;;;;;2.67;1.77;;;;;;;18.49;76.85;101031.69;4851031;29;20029;-84
2022/06/25 06:02:05;;;;;;;3.22;1.83;;;;;;;18.50;76.52;101033.41;4870600;29;20068;-84
2022/06/25 06:04:31;;;;;;;3.10;1.80;;;;;;;18.51;76.70;101035.09;4898159;29;20052;-84
2022/06/25 06:06:56;;;;;;;4.22;2.00;;;;;;;18.53;76.86;101037.63;4869792;29;20059;-84
2022/06/25 06:09:22;;;;;;;1.88;1.77;;;;;;;18.53;76.96;101042.94;4886636;29;20037;-84
2022/06/25 06:11:47;;;;;;;3.97;2.33;;;;;;;18.53;76.82;101038.47;4880114;29;20190;-84
2022/06/25 06:14:12;;;;;;;4.05;2.17;;;;;;;18.55;77.22;101051.63;4879528;29;20391;-84
2022/06/25 06:16:38;;;;;;;2.83;2.10;;;;;;;18.57;77.66;101039.09;4879065;29;20049;-84
2022/06/25 06:19:03;;;;;;;2.17;1.80;;;;;;;18.57;77.23;101053.22;4878958;29;20041;-84
2022/06/25 06:21:29;;;;;;;2.70;1.70;;;;;;;18.57;77.39;101057.66;4879468;29;20291;-84
2022/06/25 06:23:55;;;;;;;3.38;2.00;;;;;;;18.59;77.04;101061.06;4859150;29;20356;-84
2022/06/25 06:26:20;;;;;;;1.80;1.70;;;;;;;18.59;76.83;101063.69;4877828;29;20332;-84
2022/06/25 06:28:46;;;;;;;2.42;1.80;;;;;;;18.61;76.77;101067.13;4878345;29;20369;-84
2022/06/25 06:31:11;;;;;;;3.13;2.03;;;;;;;18.61;77.03;101070.63;4846776;29;20036;-84
2022/06/25 06:33:36;;;;;;;2.47;1.83;;;;;;;18.62;77.16;101074.09;4876127;29;20335;-84
2022/06/25 06:36:03;;;;;;;4.25;2.55;;;;;;;18.62;77.36;101071.44;4877218;29;20056;-84
2022/06/25 06:38:29;;;;;;;2.22;1.65;;;;;;;18.63;77.89;101074.94;4877457;29;20363;-84
2022/06/25 06:40:54;;;;;;;2.92;2.22;;;;;;;18.61;77.30;101067.97;4877235;29;20055;-84
2022/06/25 06:43:19;;;;;;;4.75;2.08;;;;;;;18.62;77.23;101071.44;4862665;29;20127;-84
2022/06/25 06:45:45;;;;;;;2.15;2.00;;;;;;;18.63;77.07;101074.94;4851917;29;20061;-84
2022/06/25 06:48:10;;;;;;;2.50;1.98;;;;;;;18.61;76.47;101081.22;4899673;29;20413;-84
2022/06/25 06:50:36;;;;;;;2.65;1.75;;;;;;;18.61;76.35;101077.72;4881287;29;20084;-84
2022/06/25 06:53:02;;;;;;;3.33;1.90;;;;;;;18.63;76.41;101080.25;4884580;29;20045;-84
2022/06/25 06:55:27;;;;;;;2.85;1.60;;;;;;;18.63;76.92;101085.56;4882758;29;20040;-84
2022/06/25 06:57:52;;;;;;;3.47;1.83;;;;;;;18.63;77.16;101082.91;4881677;29;20044;-87
2022/06/25 07:00:18;;;;;;;1.95;1.83;;;;;;;18.64;77.00;101100.53;4882250;29;20029;-87
2022/06/25 07:02:43;;;;;;;3.67;1.63;;;;;;;18.66;77.48;101101.25;4854592;29;20035;-84
2022/06/25 07:05:09;;;;;;;2.38;1.40;;;;;;;18.63;77.24;101097.03;4886576;29;20256;-84
2022/06/25 07:07:34;;;;;;;1.83;1.40;;;;;;;18.63;76.73;101101.47;4885529;29;20356;-84
2022/06/25 07:09:59;;;;;;;1.63;1.40;;;;;;;18.63;76.88;101098.81;4882205;29;20272;-84
2022/06/25 07:12:25;;;;;;;2.10;1.27;;;;;;;18.63;77.23;101101.47;4850210;29;20283;-85
2022/06/25 07:14:50;;;;;;;3.08;1.70;;;;;;;18.61;77.10;101102.44;4863603;29;20053;-84
2022/06/25 07:17:16;;;;;;;1.98;1.30;;;;;;;18.61;77.14;101097.13;4880908;29;20289;-84
2022/06/25 07:19:41;;;;;;;3.10;1.33;;;;;;;18.60;77.18;101100.72;4861855;29;20041;-85
2022/06/25 07:22:06;;;;;;;1.70;1.30;;;;;;;18.61;77.26;101098.94;4883995;29;20029;-84
2022/06/25 07:24:32;;;;;;;1.75;1.50;;;;;;;18.61;77.15;101106.91;4879478;29;20332;-84
2022/06/25 07:26:57;;;;;;;4.00;1.48;;;;;;;18.61;77.33;101109.56;4875869;29;20311;-84
2022/06/25 07:29:23;;;;;;;2.55;1.50;;;;;;;18.61;77.19;101113.06;4870253;29;20056;-85
2022/06/25 07:31:49;;;;;;;2.40;1.90;;;;;;;18.61;77.22;101117.50;4866177;29;20053;-84
2022/06/25 07:34:16;;;;;;;3.03;1.60;;;;;;;18.61;76.67;101117.50;4884289;29;20248;-84
2022/06/25 07:36:41;;;;;;;4.97;2.17;;;;;;;18.61;77.12;101122.81;4882330;29;20303;-84
2022/06/25 07:39:08;;;;;;;1.70;1.60;;;;;;;18.61;77.55;101125.47;4880288;29;20224;-84
2022/06/25 07:41:33;;;;;;;3.40;1.60;;;;;;;18.63;77.36;101125.34;4882363;29;20048;-84
2022/06/25 07:43:59;;;;;;;1.85;1.70;;;;;;;18.62;77.53;101121.84;4871470;29;20033;-84
2022/06/25 07:46:24;;;;;;;2.95;1.70;;;;;;;18.63;77.47;101122.69;4880457;29;20181;-84
2022/06/25 07:48:49;;;;;;;2.47;1.88;;;;;;;18.64;77.29;101117.28;4873080;29;20080;-84
2022/06/25 07:53:58;;;;;;;2.20;2.10;;;;;;;18.66;77.39;101120.66;4878727;29;20446;-84
2022/06/25 07:56:24;;;;;;;2.10;1.90;;;;;;;18.66;77.14;101114.53;4888287;29;20049;-84
2022/06/25 07:58:50;;;;;;;2.40;2.25;;;;;;;18.67;77.19;101127.69;4895595;29;20033;-84
2022/06/25 08:01:18;;;;;;;2.50;1.88;;;;;;;18.69;76.96;101124.94;4886793;29;20067;-86
2022/06/25 08:03:43;;;;;;;2.28;2.05;;;;;;;18.70;77.01;101126.59;4889164;29;20421;-84
2022/06/25 08:06:10;;;;;;;2.13;1.83;;;;;;;18.69;77.47;101124.94;4878962;29;20040;-84
2022/06/25 08:08:35;;;;;;;2.53;1.90;;;;;;;18.70;77.28;101137.22;4875176;29;20047;-84
2022/06/25 08:11:01;;;;;;;2.53;1.90;;;;;;;18.69;76.98;101139.03;4869151;29;20224;-84
2022/06/25 08:13:26;;;;;;;3.38;1.92;;;;;;;18.66;76.51;101135.75;4856733;29;20064;-84
2022/06/25 08:15:52;;;;;;;1.77;1.35;;;;;;;18.65;76.48;101148.16;4884750;29;20037;-84
2022/06/25 08:18:18;;;;;;;2.88;1.45;;;;;;;18.63;76.34;101146.56;4878937;29;20053;-84
2022/06/25 08:20:44;;;;;;;1.83;1.38;;;;;;;18.60;76.54;101145.81;4881648;29;20037;-84
2022/06/25 08:23:09;;;;;;;2.88;1.05;;;;;;;18.59;76.07;101143.28;4865446;29;20047;-85
2022/06/25 08:25:35;;;;;;;1.85;1.30;;;;;;;18.58;76.50;101150.38;4883449;29;20108;-84
2022/06/25 08:28:00;;;;;;;4.43;1.40;;;;;;;18.57;76.31;101158.44;4875657;29;20045;-84
2022/06/25 08:30:26;;;;;;;2.40;1.50;;;;;;;18.56;76.34;101167.38;4856881;29;20116;-84
2022/06/25 08:32:53;;;;;;;1.70;1.60;;;;;;;18.56;76.35;101162.91;4868865;29;20184;-84
2022/06/25 08:35:18;;;;;;;3.40;1.30;;;;;;;18.55;76.18;101169.16;4883717;29;20244;-84
2022/06/25 08:37:46;;;;;;;3.13;0.98;;;;;;;18.55;76.25;101168.31;4883439;29;20085;-84
2022/06/25 08:40:13;;;;;;;4.78;1.27;;;;;;;18.55;76.33;101165.66;4881403;29;20080;-84
2022/06/25 08:42:38;;;;;;;5.05;1.33;;;;;;;18.55;76.21;101173.63;4878532;29;20029;-84
2022/06/25 08:45:22;;;;;;;4.00;1.42;;;;;;;18.54;76.85;101167.47;4865738;29;20108;-85
2022/06/25 08:47:50;;;;;;;3.85;1.40;;;;;;;18.52;76.33;101168.53;4863684;29;20091;-84
2022/06/25 08:50:18;;;;;;;3.05;1.30;;;;;;;18.52;76.81;101166.75;4890379;29;20048;-84
2022/06/25 08:52:47;;;;;;;2.90;1.10;;;;;;;18.51;76.79;101175.63;4867868;29;20084;-84
2022/06/25 08:55:36;;;;;;;2.05;1.17;;;;;;;18.51;76.89;101182.75;4867527;29;20048;-84
2022/06/25 08:58:03;;;;;;;5.22;1.48;;;;;;;18.51;76.59;101185.41;4867723;29;20057;-84
2022/06/25 09:00:33;;;;;;;2.50;1.60;;;;;;;18.50;77.23;101183.69;4879187;29;20270;-84
2022/06/25 09:03:00;;;;;;;4.05;1.40;;;;;;;18.49;77.53;101184.66;4860214;29;20310;-84
2022/06/25 09:05:31;;;;;;;3.90;1.42;;;;;;;18.49;76.94;101189.97;4860886;29;20068;-84
2022/06/25 09:07:59;;;;;;;5.60;1.73;;;;;;;18.48;77.04;101190.91;4877741;29;20037;-84
2022/06/25 09:10:26;;;;;;;4.57;1.63;;;;;;;18.47;77.53;101189.22;4879674;29;20345;-84
2022/06/25 09:12:57;;;;;;;5.20;1.40;;;;;;;18.46;77.57;101187.50;4882647;29;20062;-85
2022/06/25 09:15:34;;;;;;;3.42;1.35;;;;;;;18.44;77.04;101195.56;4877792;29;20048;-84
2022/06/25 09:18:08;;;;;;;4.35;1.60;;;;;;;18.42;76.83;101190.38;4877879;29;20420;-84
2022/06/25 09:20:34;;;;;;;4.80;1.38;;;;;;;18.41;76.72;101194.00;4879854;29;20044;-84
2022/06/25 09:23:05;;;;;;;4.00;1.33;;;;;;;18.41;76.68;101195.81;4862604;29;20324;-84
2022/06/25 09:25:33;;;;;;;4.15;1.52;;;;;;;18.39;76.60;101192.38;4854265;29;20100;-84
2022/06/25 09:27:59;;;;;;;1.47;1.17;;;;;;;18.39;76.58;101195.91;4859155;29;20228;-84
2022/06/25 09:30:28;;;;;;;4.05;1.35;;;;;;;18.39;76.80;101193.25;4869855;29;20379;-85
2022/06/25 09:32:58;;;;;;;4.13;1.27;;;;;;;18.36;76.39;101201.41;4882442;29;20146;-84
2022/06/25 09:35:34;;;;;;;2.40;1.17;;;;;;;18.35;76.17;101197.03;4857639;29;20064;-84
2022/06/25 09:38:10;;;;;;;5.45;1.70;;;;;;;18.35;76.40;101202.34;4879218;29;20258;-84
2022/06/25 09:40:37;;;;;;;3.05;1.10;;;;;;;18.34;76.40;101205.97;4881143;29;20366;-84
2022/06/25 09:43:11;;;;;;;8.05;1.80;;;;;;;18.33;76.22;101214.84;4859489;29;20284;-84
2022/06/25 09:45:37;;;;;;;4.07;1.40;;;;;;;18.31;76.23;101215.94;4874536;29;20032;-84
2022/06/25 09:48:03;;;;;;;4.22;1.45;;;;;;;18.30;76.43;101215.09;4879262;29;20096;-84
2022/06/25 09:50:28;;;;;;;4.53;1.77;;;;;;;18.31;76.74;101210.63;4881047;29;20049;-84
2022/06/25 09:52:56;;;;;;;2.83;1.35;;;;;;;18.30;77.01;101219.53;4861203;29;20273;-84
2022/06/25 09:55:25;;;;;;;3.07;2.07;;;;;;;18.30;77.19;101222.16;4879018;29;20036;-84
2022/06/25 09:57:52;;;;;;;3.53;1.40;;;;;;;18.28;77.14;101219.66;4877258;29;20435;-84
2022/06/25 10:00:19;;;;;;;3.88;1.50;;;;;;;18.28;76.72;101227.59;4858847;29;20056;-84
2022/06/25 10:02:48;;;;;;;3.65;1.67;;;;;;;18.27;76.47;101219.75;4867359;29;20033;-84
2022/06/25 10:05:18;;;;;;;3.13;1.17;;;;;;;18.27;76.37;101220.59;4875811;29;20084;-84
2022/06/25 10:07:59;;;;;;;3.97;1.73;;;;;;;18.27;76.46;101220.59;4879644;29;20029;-84
2022/06/25 10:10:26;;;;;;;4.72;1.90;;;;;;;18.28;76.83;101224.06;4878096;29;20049;-84
2022/06/25 10:12:52;;;;;;;5.47;2.33;;;;;;;18.29;76.48;101226.63;4865777;29;20040;-84
2022/06/25 10:15:21;;;;;;;4.32;2.40;;;;;;;18.30;76.74;101230.13;4878387;29;20120;-84
2022/06/25 10:17:49;;;;;;;6.28;2.42;;;;;;;18.31;76.89;101229.19;4874622;29;20259;-84
2022/06/25 10:20:16;;;;;;;3.28;2.67;;;;;;;18.33;77.05;101220.16;4877902;29;20056;-84
2022/06/25 10:22:43;;;;;;;5.10;2.38;;;;;;;18.34;77.22;101219.22;4883428;29;20100;-84
2022/06/25 10:25:19;;;;;;;4.10;1.70;;;;;;;18.37;76.52;101221.69;4882749;29;20260;-84
2022/06/25 10:27:47;;;;;;;3.03;2.47;;;;;;;18.40;76.20;101212.66;4865721;29;20198;-85
2022/06/25 10:30:14;;;;;;;4.40;2.75;;;;;;;18.43;75.95;101217.75;4873824;29;20344;-84
2022/06/25 10:32:49;;;;;;;5.20;3.33;;;;;;;18.45;76.59;101215.00;4886664;29;20047;-84
2022/06/25 10:35:30;;;;;;;7.57;3.28;;;;;;;18.47;76.05;101221.06;4866094;29;20053;-84
2022/06/25 10:38:13;;;;;;;4.35;3.50;;;;;;;18.48;76.48;101215.66;4877845;29;20096;-84
2022/06/25 10:43:54;;;;;;;4.32;3.58;;;;;;;18.54;77.61;101219.69;4877031;29;20109;-84
2022/06/25 10:46:33;;;;;;;3.80;3.40;;;;;;;18.55;77.39;101222.19;4883644;29;20033;-84
2022/06/25 10:49:10;;;;;;;5.88;3.90;;;;;;;18.57;77.78;101220.31;4882404;29;20029;-84
2022/06/25 10:51:49;;;;;;;9.85;4.32;;;;;;;18.59;78.88;101223.72;4880675;29;20069;-84
2022/06/25 10:54:26;;;;;;;;;;;;;;;18.62;78.68;101222.66;4866889;29;20384;-84
2022/06/25 10:56:54;;;;;;;4.00;3.67;;;;;;;18.64;79.71;101214.59;4882208;29;19958;-84
2022/06/25 10:59:32;;;;;;;4.07;3.65;;;;;;;18.67;78.61;101217.03;4866023;29;20033;-84
2022/06/25 11:01:58;;;;;;;3.30;3.10;;;;;;;18.66;77.90;101213.50;4887143;29;20243;-84
2022/06/25 11:04:27;;;;;;;5.22;3.33;;;;;;;18.65;77.53;101224.25;4882438;29;20117;-84
2022/06/25 11:06:53;;;;;;;4.18;3.50;;;;;;;18.66;77.18;101226.78;4882921;29;20044;-84
2022/06/25 11:09:19;;;;;;;4.03;3.55;;;;;;;18.67;76.98;101219.69;4882377;29;20317;-84
2022/06/25 11:11:48;;;;;;;3.40;3.10;;;;;;;18.66;77.09;101218.81;4875352;29;20032;-84
2022/06/25 11:14:21;;;;;;;5.07;4.13;;;;;;;18.70;77.46;101222.09;4881251;29;20110;-84
2022/06/25 11:16:46;;;;;;;4.10;3.15;;;;;;;18.70;77.71;101220.31;4862674;29;20049;-84
2022/06/25 11:19:12;;;;;;;3.47;3.17;;;;;;;18.72;77.42;101215.75;4874316;29;20366;-84
2022/06/25 11:21:43;;;;;;;4.15;3.00;;;;;;;18.77;77.16;101212.78;4864955;29;20396;-84
2022/06/25 11:24:13;;;;;;;4.85;2.60;;;;;;;18.81;77.11;101211.66;4863959;29;20076;-84
2022/06/25 11:29:33;;;;;;;3.28;2.67;;;;;;;18.92;78.36;101205.59;4869178;29;20247;-84
2022/06/25 11:31:58;;;;;;;2.67;2.03;;;;;;;18.99;78.82;101199.75;4868134;29;20052;-84
2022/06/25 11:34:25;;;;;;;3.35;2.10;;;;;;;19.05;78.38;101205.59;4879635;29;20048;-84
2022/06/25 11:37:10;;;;;;;1.65;1.55;;;;;;;19.08;78.11;101208.88;4878215;29;20052;-84